Estación de Curicó

Ultimos registro cada 15 minutos 43
Estación Fecha / Hora Temperatura Humedad Lluvia Velocidad Dirección Radiación Presion
43 Curicó 10-05-2026 10:30 11,5 74,5 0 1,3 222 421,9 988,9
42 Curicó 10-05-2026 10:15 10,7 75,7 0 1,3 213 395,6 989
41 Curicó 10-05-2026 10:00 10,3 78,6 0 1 212 364,4 989,4
40 Curicó 10-05-2026 09:45 9,5 82,5 0 1,3 202 335,6 989,6
39 Curicó 10-05-2026 09:30 8,9 87 0 1 219 301,9 989,8
38 Curicó 10-05-2026 09:15 8,5 92,6 0 0 145 259,4 990,2
37 Curicó 10-05-2026 09:00 7,7 94 0 0 105 225,6 990,3
36 Curicó 10-05-2026 08:45 6 95,3 0 0 107 194,4 990,1
35 Curicó 10-05-2026 08:30 4,5 95,5 0 0 107 159,4 990,1
34 Curicó 10-05-2026 08:15 2,4 95,9 0 0 107 116,9 989,9
33 Curicó 10-05-2026 08:00 0,9 96,3 0 0 107 64,4 989,8
32 Curicó 10-05-2026 07:45 -0,9 96,2 0 0 107 9,4 989,9
31 Curicó 10-05-2026 07:30 -0,9 96 0 0 107 3,1 990
30 Curicó 10-05-2026 07:15 -0,9 96 0 0 107 0,6 990,2
29 Curicó 10-05-2026 07:00 -0,9 95,7 0 0 107 0,6 990
28 Curicó 10-05-2026 06:45 -0,8 95,7 0 0 107 0,6 989,9
27 Curicó 10-05-2026 06:30 -0,7 95,8 0 0 107 0,6 989,9
26 Curicó 10-05-2026 06:15 -0,4 95,4 0 0 107 0,6 989,9
25 Curicó 10-05-2026 06:00 0,1 95,4 0 0 107 0,6 989,9
24 Curicó 10-05-2026 05:45 -0,1 95,3 0 0 105 0,6 989,9
23 Curicó 10-05-2026 05:30 0,2 95,2 0 0 105 0,6 989,6
22 Curicó 10-05-2026 05:15 0,1 95 0 0 105 0,6 989,6
21 Curicó 10-05-2026 05:00 0,9 94,9 0 0 132 0,6 989,7
20 Curicó 10-05-2026 04:45 0,8 94,6 0 0 146 0,6 989,6
19 Curicó 10-05-2026 04:30 1 94,5 0 0 146 0,6 989,8
18 Curicó 10-05-2026 04:15 1,1 94,2 0 0 146 0,6 989,8
17 Curicó 10-05-2026 04:00 1,6 94 0 0 146 0,6 989,7
16 Curicó 10-05-2026 03:45 2,2 93,8 0 0 146 0,6 989,9
15 Curicó 10-05-2026 03:30 3,1 93,7 0 0 146 0,6 989,8
14 Curicó 10-05-2026 03:15 3,7 93,2 0 0 146 0,6 989,9
13 Curicó 10-05-2026 03:00 4,5 93,4 0 0 146 0,6 990
12 Curicó 10-05-2026 02:45 5,1 93,2 0 0 147 0,6 990,3
11 Curicó 10-05-2026 02:30 4,3 93,2 0 0 159 0,6 990,4
10 Curicó 10-05-2026 02:15 4,1 92,5 0 0 160 0,6 990,6
9 Curicó 10-05-2026 02:00 3,8 91,6 0 0 160 0,6 990,5
8 Curicó 10-05-2026 01:45 4,4 90,7 0 0 160 0,6 990,5
7 Curicó 10-05-2026 01:30 5,7 90 0 0 160 0,6 990,4
6 Curicó 10-05-2026 01:15 6,4 89,9 0 0 167 0,6 990,5
5 Curicó 10-05-2026 01:00 6,7 89,5 0 0,3 177 0,6 990,5
4 Curicó 10-05-2026 00:45 6,8 89,1 0 0 150 0,6 990,7
3 Curicó 10-05-2026 00:30 6,4 89 0 0 140 0,6 990,7
2 Curicó 10-05-2026 00:15 6,1 87,6 0 0 146 0,6 990,7
1 Curicó 10-05-2026 00:00 6,9 86,6 0 0 146 0,6 990,8